Time;durP1;ratioP1;P1;durP2;ratioP2;P2;SDS_P1;SDS_P2;PMS_P1;PMS_P2;Temp;Humidity;BMP_temperature;BMP_pressure;BME280_temperature;BME280_humidity;BME280_pressure;Samples;Min_cycle;Max_cycle;Signal;HPM_P1;HPM_P2
2024/01/16 00:00:39;;;;;;;4.07;2.07;;;-4.20;93.60;;;;;;2053415;28;20232;-66
2024/01/16 00:01:45;;;;;;;3.10;2.03;;;-4.20;93.50;;;;;;2052500;28;20286;-67
2024/01/16 00:02:46;;;;;;;5.30;2.05;;;-4.10;93.30;;;;;;2053378;28;20228;-67
2024/01/16 00:03:47;;;;;;;4.13;2.37;;;-4.20;93.10;;;;;;2044925;28;20316;-67
2024/01/16 00:04:47;;;;;;;3.70;2.30;;;-4.10;92.70;;;;;;2041048;28;20318;-67
2024/01/16 00:05:48;;;;;;;3.43;2.10;;;-4.20;92.50;;;;;;2040113;28;20736;-66
2024/01/16 00:06:49;;;;;;;2.47;1.70;;;-4.20;92.70;;;;;;2051457;28;20229;-67
2024/01/16 00:07:50;;;;;;;4.13;2.03;;;-4.30;93.10;;;;;;2052171;28;20238;-66
2024/01/16 00:08:50;;;;;;;2.47;2.27;;;-4.30;93.30;;;;;;2051220;28;20342;-67
2024/01/16 00:09:53;;;;;;;4.17;2.03;;;-4.30;93.50;;;;;;2052145;28;20681;-66
2024/01/16 00:10:54;;;;;;;3.85;2.30;;;-4.30;93.40;;;;;;2050878;28;20238;-66
2024/01/16 00:11:54;;;;;;;3.63;2.23;;;-4.30;93.40;;;;;;2051075;28;20759;-66
2024/01/16 00:12:55;;;;;;;3.97;2.00;;;-4.40;93.60;;;;;;2050728;28;20232;-66
2024/01/16 00:13:56;;;;;;;4.43;2.50;;;-4.40;93.40;;;;;;2042264;28;20229;-67
2024/01/16 00:14:57;;;;;;;5.17;2.30;;;-4.50;93.30;;;;;;2050067;28;20231;-67
2024/01/16 00:15:57;;;;;;;3.37;2.20;;;-4.40;93.50;;;;;;2041681;28;20721;-67
2024/01/16 00:16:58;;;;;;;2.63;2.00;;;-4.40;93.30;;;;;;2038290;28;20235;-66
2024/01/16 00:17:59;;;;;;;3.17;1.90;;;-4.50;93.40;;;;;;2050265;28;20235;-67
2024/01/16 00:18:59;;;;;;;3.27;2.27;;;-4.50;93.70;;;;;;2053524;28;20231;-67
2024/01/16 00:20:00;;;;;;;4.63;2.50;;;-4.40;93.70;;;;;;2052981;28;20617;-67
2024/01/16 00:21:04;;;;;;;4.07;2.47;;;-4.30;93.80;;;;;;2051082;28;20278;-67
2024/01/16 00:22:05;;;;;;;4.05;2.53;;;-4.30;93.40;;;;;;2053513;28;20782;-66
2024/01/16 00:23:06;;;;;;;3.60;2.00;;;-4.30;93.10;;;;;;2051936;28;20198;-66
2024/01/16 00:24:07;;;;;;;3.33;2.38;;;-4.40;92.70;;;;;;2052759;28;20259;-66
2024/01/16 00:25:08;;;;;;;4.35;2.20;;;-4.40;92.80;;;;;;2051595;28;20584;-66
2024/01/16 00:26:21;;;;;;;4.30;2.10;;;-4.40;92.80;;;;;;2051600;28;20193;-67
2024/01/16 00:27:21;;;;;;;4.25;2.72;;;-4.30;93.00;;;;;;2052024;28;20761;-67
2024/01/16 00:28:22;;;;;;;3.17;2.40;;;-4.30;93.00;;;;;;2043151;28;20242;-66
2024/01/16 00:29:23;;;;;;;3.23;2.50;;;-4.30;93.00;;;;;;2051989;28;20664;-65
2024/01/16 00:30:24;;;;;;;4.15;2.28;;;-4.40;93.10;;;;;;2050971;28;20239;-67
2024/01/16 00:31:24;;;;;;;3.13;2.23;;;-4.40;93.40;;;;;;2050344;28;20232;-67
2024/01/16 00:32:25;;;;;;;2.73;2.00;;;-4.50;93.30;;;;;;2049422;28;20230;-67
2024/01/16 00:33:27;;;;;;;4.07;2.60;;;-4.60;93.40;;;;;;2049320;28;20242;-67
2024/01/16 00:34:28;;;;;;;3.30;2.20;;;-4.50;93.80;;;;;;2050504;28;20232;-67
2024/01/16 00:35:28;;;;;;;3.60;2.40;;;-4.60;93.80;;;;;;2049637;28;20231;-67
2024/01/16 00:36:29;;;;;;;4.90;2.73;;;-4.60;93.80;;;;;;2049662;28;20228;-67
2024/01/16 00:37:30;;;;;;;2.97;1.70;;;-4.60;93.80;;;;;;2049549;28;20667;-67
2024/01/16 00:38:33;;;;;;;4.17;2.33;;;-4.60;94.00;;;;;;2050287;28;20791;-67
2024/01/16 00:39:34;;;;;;;3.10;2.10;;;-4.50;94.20;;;;;;2054288;28;20339;-67
2024/01/16 00:40:35;;;;;;;3.90;2.13;;;-4.50;94.20;;;;;;2053129;28;20224;-67
2024/01/16 00:41:35;;;;;;;4.67;2.67;;;-4.50;94.20;;;;;;2053577;28;20229;-67
2024/01/16 00:42:36;;;;;;;3.37;2.40;;;-4.50;94.10;;;;;;2053210;28;20623;-67
2024/01/16 00:43:37;;;;;;;4.13;2.20;;;-4.50;94.00;;;;;;2053961;28;20238;-64
2024/01/16 00:44:38;;;;;;;5.33;2.37;;;-4.50;94.10;;;;;;2053587;28;20289;-64
2024/01/16 00:45:40;;;;;;;4.22;2.60;;;-4.60;94.10;;;;;;2058553;28;20711;-67
2024/01/16 00:46:41;;;;;;;3.88;2.58;;;-4.60;94.10;;;;;;2056953;28;20711;-67
2024/01/16 00:47:41;;;;;;;4.67;2.33;;;-4.60;94.00;;;;;;2052321;28;20236;-65
2024/01/16 00:48:42;;;;;;;4.07;2.40;;;-4.50;93.90;;;;;;2052177;28;20719;-67
2024/01/16 00:49:43;;;;;;;3.67;2.50;;;-4.50;93.80;;;;;;2043356;28;20227;-67
2024/01/16 00:50:46;;;;;;;6.80;3.10;;;-4.50;93.90;;;;;;2043171;28;20227;-67
2024/01/16 00:51:46;;;;;;;4.57;2.60;;;-4.50;94.00;;;;;;2053584;28;20234;-67
2024/01/16 00:52:47;;;;;;;4.90;3.07;;;-4.50;94.50;;;;;;2053171;28;20693;-67
2024/01/16 00:53:47;;;;;;;4.77;2.80;;;-4.60;94.60;;;;;;2051330;28;20228;-67
2024/01/16 00:54:48;;;;;;;5.27;2.80;;;-4.60;94.60;;;;;;2051460;28;20231;-67
2024/01/16 00:55:50;;;;;;;4.57;3.00;;;-4.60;94.50;;;;;;2051090;28;20228;-67
2024/01/16 00:56:55;;;;;;;3.67;2.35;;;-4.60;94.20;;;;;;2050663;28;20224;-67
2024/01/16 00:57:55;;;;;;;5.18;2.80;;;-4.60;93.90;;;;;;2050008;28;20240;-67
2024/01/16 00:58:56;;;;;;;3.33;2.20;;;-4.60;94.00;;;;;;2046198;28;20833;-67
2024/01/16 00:59:57;;;;;;;4.50;3.07;;;-4.70;94.10;;;;;;2046743;28;20327;-67
2024/01/16 01:00:58;;;;;;;3.30;2.67;;;-4.60;94.60;;;;;;2056511;28;20327;-67
2024/01/16 01:01:58;;;;;;;4.30;2.43;;;-4.70;94.40;;;;;;2053673;28;20696;-67
2024/01/16 01:02:59;;;;;;;3.13;2.63;;;-4.80;94.70;;;;;;2053452;28;20307;-67
2024/01/16 01:04:00;;;;;;;4.27;2.53;;;-4.80;94.30;;;;;;2053654;28;20289;-67
2024/01/16 01:05:00;;;;;;;3.77;2.70;;;-4.90;94.20;;;;;;2053010;28;20231;-67
2024/01/16 01:06:01;;;;;;;5.07;2.90;;;-4.80;94.40;;;;;;2052453;28;20220;-66
2024/01/16 01:07:02;;;;;;;5.07;2.47;;;-4.80;94.40;;;;;;2036113;29;20259;-64
2024/01/16 01:08:03;;;;;;;6.27;3.00;;;-4.90;94.30;;;;;;2043921;28;20204;-64
2024/01/16 01:09:03;;;;;;;5.00;2.73;;;-4.90;94.40;;;;;;2052247;28;20255;-64
2024/01/16 01:10:05;;;;;;;4.73;2.73;;;-4.90;95.10;;;;;;2052017;28;20294;-64
2024/01/16 01:11:05;;;;;;;5.78;2.40;;;-5.00;95.30;;;;;;2051951;28;20571;-67
2024/01/16 01:12:06;;;;;;;4.57;2.60;;;-5.20;95.00;;;;;;2051851;28;20210;-67
2024/01/16 01:13:07;;;;;;;4.07;2.50;;;-5.20;95.50;;;;;;2042382;28;20595;-67
2024/01/16 01:14:08;;;;;;;3.78;2.15;;;-5.30;95.40;;;;;;2039222;28;20623;-67
2024/01/16 01:15:10;;;;;;;3.05;2.03;;;-5.50;95.50;;;;;;2048165;28;20202;-67
2024/01/16 01:16:10;;;;;;;3.47;2.42;;;-5.50;96.10;;;;;;2047190;28;20669;-67
2024/01/16 01:17:11;;;;;;;4.97;2.50;;;-5.60;96.30;;;;;;2048416;28;20191;-67
2024/01/16 01:18:12;;;;;;;3.47;2.47;;;-5.60;96.50;;;;;;2049907;28;20620;-67
2024/01/16 01:19:13;;;;;;;3.65;1.83;;;-5.60;96.50;;;;;;2050533;28;20188;-67
2024/01/16 01:20:14;;;;;;;2.97;2.10;;;-5.80;96.30;;;;;;2050755;28;20195;-66
2024/01/16 01:21:15;;;;;;;3.45;1.85;;;-5.70;97.30;;;;;;2056894;28;20210;-67
2024/01/16 01:22:16;;;;;;;2.90;2.00;;;-5.80;97.30;;;;;;2055690;28;20643;-67
2024/01/16 01:23:16;;;;;;;4.70;2.47;;;-5.90;97.20;;;;;;2054608;28;20224;-67
2024/01/16 01:24:17;;;;;;;5.27;2.23;;;-5.90;97.60;;;;;;2054446;28;20660;-67
2024/01/16 01:25:18;;;;;;;5.60;2.10;;;-5.90;97.70;;;;;;2054282;28;20186;-67
2024/01/16 01:26:19;;;;;;;3.73;2.50;;;-6.00;97.80;;;;;;2053106;28;20262;-67
2024/01/16 01:27:19;;;;;;;5.03;2.63;;;-6.00;98.00;;;;;;2054035;28;20189;-67
2024/01/16 01:28:20;;;;;;;4.50;2.73;;;-6.00;98.10;;;;;;2054912;28;20563;-67
2024/01/16 01:29:21;;;;;;;4.13;2.30;;;-6.00;97.90;;;;;;2053780;28;20264;-67
2024/01/16 01:30:21;;;;;;;4.43;2.70;;;-5.90;97.90;;;;;;2052930;28;20249;-67
2024/01/16 01:31:23;;;;;;;4.13;2.03;;;-5.80;97.90;;;;;;2050497;28;20309;-67
2024/01/16 01:32:24;;;;;;;5.93;2.80;;;-5.90;97.50;;;;;;2050545;28;20242;-67
2024/01/16 01:33:24;;;;;;;2.50;2.13;;;-5.90;97.90;;;;;;2053012;28;20752;-67
2024/01/16 01:34:25;;;;;;;4.67;2.53;;;-6.00;98.00;;;;;;2053007;28;20334;-67
2024/01/16 01:35:26;;;;;;;3.77;2.17;;;-6.00;97.90;;;;;;2056860;28;20333;-67
2024/01/16 01:36:27;;;;;;;5.93;2.13;;;-6.00;98.00;;;;;;2051848;28;20317;-67
2024/01/16 01:37:28;;;;;;;2.67;1.92;;;-6.00;98.20;;;;;;2042805;28;20466;-67
2024/01/16 01:38:29;;;;;;;2.87;1.83;;;-6.00;98.20;;;;;;2036562;29;20759;-67
2024/01/16 01:39:30;;;;;;;3.07;1.77;;;-5.80;98.00;;;;;;2052190;28;20229;-67
2024/01/16 01:40:30;;;;;;;3.17;2.15;;;-6.00;97.80;;;;;;2051588;28;20231;-66
2024/01/16 01:41:31;;;;;;;2.90;1.90;;;-6.00;98.10;;;;;;2051587;28;20616;-67
2024/01/16 01:42:32;;;;;;;4.53;2.47;;;-6.10;98.60;;;;;;2052599;28;20234;-67
2024/01/16 01:43:32;;;;;;;3.87;2.40;;;-6.10;98.50;;;;;;2055036;28;20609;-67
2024/01/16 01:44:33;;;;;;;3.53;2.13;;;-6.10;98.40;;;;;;2055457;28;20235;-67
2024/01/16 01:45:34;;;;;;;5.80;2.20;;;-6.00;98.70;;;;;;2055789;28;20226;-66
2024/01/16 01:46:35;;;;;;;3.27;2.20;;;-6.10;98.60;;;;;;2053630;28;20234;-67
2024/01/16 01:47:45;;;;;;;3.42;2.38;;;-6.10;98.40;;;;;;2054656;28;20226;-66
2024/01/16 01:48:47;;;;;;;3.38;2.03;;;-6.10;98.50;;;;;;2053407;28;20243;-66
2024/01/16 01:49:48;;;;;;;3.38;2.03;;;-6.10;98.50;;;;;;2045509;28;20290;-66
2024/01/16 01:50:49;;;;;;;3.30;2.30;;;-6.00;98.60;;;;;;2053030;28;20298;-67
2024/01/16 01:51:50;;;;;;;5.50;2.90;;;-6.00;98.90;;;;;;2046669;28;20298;-67
2024/01/16 01:52:51;;;;;;;3.90;2.50;;;-5.90;99.40;;;;;;2052500;28;20323;-67
2024/01/16 01:53:52;;;;;;;4.30;2.70;;;-5.90;99.10;;;;;;2045482;28;20239;-67
2024/01/16 01:54:53;;;;;;;5.05;2.60;;;-5.80;99.20;;;;;;2044319;28;20658;-67
2024/01/16 01:55:55;;;;;;;6.00;3.17;;;-5.80;99.20;;;;;;2053138;28;20265;-67
2024/01/16 01:56:56;;;;;;;6.15;2.97;;;-5.70;99.00;;;;;;2042981;28;20236;-67
2024/01/16 01:57:57;;;;;;;8.13;3.00;;;-5.60;98.80;;;;;;2047836;28;20272;-66
2024/01/16 01:59:01;;;;;;;6.13;3.27;;;-5.60;98.60;;;;;;2047585;28;20863;-66
2024/01/16 02:00:04;;;;;;;8.40;2.60;;;-5.60;98.50;;;;;;2042281;28;20227;-66
2024/01/16 02:01:07;;;;;;;5.68;2.70;;;-5.50;98.30;;;;;;2050763;28;20187;-67
2024/01/16 02:02:08;;;;;;;4.43;2.63;;;-5.50;98.10;;;;;;2050732;28;20681;-67
2024/01/16 02:03:08;;;;;;;6.90;3.03;;;-5.50;98.00;;;;;;2051266;28;20195;-65
2024/01/16 02:04:13;;;;;;;5.33;2.93;;;-5.50;98.00;;;;;;2052111;28;20183;-65
2024/01/16 02:05:15;;;;;;;5.15;2.88;;;-5.40;97.80;;;;;;2045179;28;20657;-67
2024/01/16 02:06:16;;;;;;;5.68;2.63;;;-5.40;97.60;;;;;;2053686;28;20226;-65
2024/01/16 02:07:17;;;;;;;4.25;2.85;;;-5.40;97.40;;;;;;2054625;28;20255;-65
2024/01/16 02:08:18;;;;;;;3.60;2.50;;;-5.40;97.30;;;;;;2051750;28;20206;-65
2024/01/16 02:09:20;;;;;;;4.47;2.80;;;-5.40;97.40;;;;;;2049788;28;20188;-65
2024/01/16 02:10:20;;;;;;;5.32;2.65;;;-5.40;97.30;;;;;;2043734;28;20430;-65
2024/01/16 02:11:21;;;;;;;6.10;2.90;;;-5.40;96.90;;;;;;2051201;28;20688;-65
2024/01/16 02:12:22;;;;;;;14.90;3.23;;;-5.40;96.70;;;;;;2057792;28;20315;-65
2024/01/16 02:13:23;;;;;;;5.43;2.57;;;-5.40;96.20;;;;;;2051719;28;20829;-67
2024/01/16 02:14:23;;;;;;;6.60;2.97;;;-5.50;95.70;;;;;;2050042;28;20227;-66
2024/01/16 02:15:24;;;;;;;6.97;2.60;;;-5.50;95.20;;;;;;2049717;28;20558;-65
2024/01/16 02:16:25;;;;;;;6.33;2.97;;;-5.60;95.00;;;;;;2050603;28;20375;-66
2024/01/16 02:17:25;;;;;;;5.43;2.93;;;-5.60;94.80;;;;;;2051765;28;20241;-67
2024/01/16 02:18:27;;;;;;;6.00;2.80;;;-5.80;95.40;;;;;;2051793;28;20604;-67
2024/01/16 02:19:27;;;;;;;4.78;2.20;;;-5.90;96.00;;;;;;2050460;28;20223;-64
2024/01/16 02:20:28;;;;;;;5.00;2.53;;;-6.10;95.90;;;;;;2050890;28;20290;-65
2024/01/16 02:21:37;;;;;;;3.73;2.07;;;-6.10;96.20;;;;;;2051029;28;20242;-65
2024/01/16 02:22:39;;;;;;;6.53;2.70;;;-6.20;96.60;;;;;;2041963;28;20286;-67
2024/01/16 02:23:40;;;;;;;3.53;2.33;;;-6.20;96.70;;;;;;2037208;29;20232;-67
2024/01/16 02:24:40;;;;;;;5.07;2.80;;;-6.40;97.10;;;;;;2043262;28;20747;-66
2024/01/16 02:25:44;;;;;;;4.70;2.77;;;-6.40;97.30;;;;;;2054147;28;20301;-67
2024/01/16 02:26:45;;;;;;;5.93;2.40;;;-6.40;97.60;;;;;;2054025;28;20717;-67
2024/01/16 02:27:47;;;;;;;5.20;2.63;;;-6.50;97.90;;;;;;2054217;28;20241;-66
2024/01/16 02:28:47;;;;;;;3.50;2.40;;;-6.50;98.40;;;;;;2051857;28;20245;-67
2024/01/16 02:29:48;;;;;;;6.23;2.40;;;-6.50;98.60;;;;;;2044658;28;20294;-66
2024/01/16 02:30:49;;;;;;;4.23;2.53;;;-6.50;99.00;;;;;;2052204;28;20242;-67
2024/01/16 02:31:49;;;;;;;7.07;2.70;;;-6.50;98.90;;;;;;2052129;28;20233;-67
2024/01/16 02:32:50;;;;;;;4.20;1.67;;;-6.40;99.00;;;;;;2052104;28;20266;-67
2024/01/16 02:33:51;;;;;;;2.87;2.00;;;-6.50;98.60;;;;;;2051717;28;20235;-67
2024/01/16 02:34:52;;;;;;;5.00;2.70;;;-6.60;98.20;;;;;;2050802;28;20230;-66
2024/01/16 02:35:52;;;;;;;5.57;2.83;;;-6.70;98.40;;;;;;2052123;28;20231;-67
2024/01/16 02:36:53;;;;;;;3.53;2.03;;;-6.70;98.60;;;;;;2051666;28;20285;-67
2024/01/16 02:37:54;;;;;;;3.20;2.07;;;-6.60;99.20;;;;;;2051757;28;20266;-66
2024/01/16 02:38:55;;;;;;;3.00;2.10;;;-6.60;99.70;;;;;;2051217;28;20258;-67
2024/01/16 02:39:56;;;;;;;4.53;2.40;;;-6.60;99.90;;;;;;2051273;28;20263;-67
2024/01/16 02:40:56;;;;;;;4.00;2.53;;;-6.60;99.90;;;;;;2049675;28;20649;-67
2024/01/16 02:41:57;;;;;;;3.67;2.50;;;-6.60;99.90;;;;;;2049088;28;20235;-66
2024/01/16 02:42:58;;;;;;;4.17;2.47;;;-6.70;99.70;;;;;;2048740;28;20290;-67
2024/01/16 02:43:58;;;;;;;4.23;2.30;;;-6.60;99.90;;;;;;2049084;28;20231;-65
2024/01/16 02:44:59;;;;;;;4.80;2.00;;;-6.60;99.30;;;;;;2049304;28;20230;-65
2024/01/16 02:46:00;;;;;;;4.93;2.53;;;-6.70;98.90;;;;;;2053551;28;20271;-67
2024/01/16 02:47:00;;;;;;;3.57;2.20;;;-6.90;98.90;;;;;;2050531;28;20757;-67
2024/01/16 02:48:03;;;;;;;8.33;2.73;;;-6.80;99.20;;;;;;2052579;28;20258;-68
2024/01/16 02:49:04;;;;;;;2.88;2.00;;;-6.80;99.10;;;;;;2053801;28;20191;-66
2024/01/16 02:50:05;;;;;;;3.83;1.90;;;-6.80;99.10;;;;;;2052468;28;20191;-66
2024/01/16 02:51:06;;;;;;;5.60;2.35;;;-6.90;99.00;;;;;;2051066;28;20198;-65
2024/01/16 02:52:06;;;;;;;4.60;2.50;;;-6.80;99.60;;;;;;2051863;28;20221;-65
2024/01/16 02:53:07;;;;;;;6.67;2.57;;;-6.90;99.80;;;;;;2051696;28;20199;-67
2024/01/16 02:54:08;;;;;;;4.07;2.73;;;-6.90;99.90;;;;;;2054293;28;20219;-67
2024/01/16 02:55:09;;;;;;;5.30;2.38;;;-6.80;99.90;;;;;;2051129;28;20612;-67
2024/01/16 02:56:10;;;;;;;3.60;2.25;;;-6.90;99.90;;;;;;2050275;28;20186;-65
2024/01/16 02:57:11;;;;;;;5.73;2.77;;;-6.90;99.90;;;;;;2051259;28;20283;-65
2024/01/16 02:58:11;;;;;;;4.17;2.53;;;-6.90;99.90;;;;;;2052471;28;20708;-65
2024/01/16 02:59:12;;;;;;;4.23;2.80;;;-6.90;99.70;;;;;;2051897;28;20195;-67
2024/01/16 03:00:13;;;;;;;3.27;2.10;;;-6.80;99.50;;;;;;2052688;28;20183;-67
2024/01/16 03:01:15;;;;;;;4.43;1.77;;;-6.80;99.30;;;;;;2050516;28;20602;-67
2024/01/16 03:02:16;;;;;;;3.83;2.20;;;-6.90;99.30;;;;;;2049260;28;20744;-67
2024/01/16 03:03:17;;;;;;;4.53;2.13;;;-7.00;99.10;;;;;;2050501;28;20186;-67
2024/01/16 03:04:17;;;;;;;3.50;1.97;;;-7.10;99.10;;;;;;2050000;28;20824;-67
2024/01/16 03:05:18;;;;;;;4.47;2.30;;;-7.00;99.20;;;;;;2050230;28;20983;-67
2024/01/16 03:06:25;;;;;;;4.13;2.03;;;-7.20;99.20;;;;;;2051083;28;20230;-65
2024/01/16 03:07:26;;;;;;;2.83;2.20;;;-7.40;99.10;;;;;;2048705;28;20234;-67
2024/01/16 03:08:27;;;;;;;2.90;1.90;;;-7.40;99.10;;;;;;2053626;28;20610;-67
2024/01/16 03:09:27;;;;;;;3.47;2.40;;;-7.40;99.20;;;;;;2053157;28;20223;-67
2024/01/16 03:10:28;;;;;;;3.67;2.27;;;-7.40;99.50;;;;;;2054032;28;20226;-67
2024/01/16 03:11:31;;;;;;;3.63;2.70;;;-7.50;99.30;;;;;;2052818;28;20222;-67
2024/01/16 03:12:32;;;;;;;4.93;2.10;;;-7.60;99.20;;;;;;2053014;28;20223;-67
2024/01/16 03:13:33;;;;;;;3.30;2.15;;;-7.60;99.20;;;;;;2049551;28;20671;-65
2024/01/16 03:14:35;;;;;;;5.33;2.23;;;-7.50;99.80;;;;;;2052379;28;20229;-66
2024/01/16 03:15:36;;;;;;;2.72;2.20;;;-7.60;99.90;;;;;;2049379;28;20226;-67
2024/01/16 03:16:37;;;;;;;3.77;1.87;;;-7.70;99.90;;;;;;2051886;28;20234;-67
2024/01/16 03:17:37;;;;;;;4.27;2.07;;;-7.70;99.80;;;;;;2052023;28;20223;-65
2024/01/16 03:18:38;;;;;;;4.00;2.33;;;-7.70;99.90;;;;;;2051941;28;20281;-67
2024/01/16 03:19:39;;;;;;;3.65;2.22;;;-7.80;99.90;;;;;;2050926;28;20244;-67
2024/01/16 03:20:40;;;;;;;2.43;1.60;;;-7.80;99.90;;;;;;2051441;28;20311;-67
2024/01/16 03:21:41;;;;;;;4.60;2.30;;;-7.90;99.70;;;;;;2043122;28;20239;-67
2024/01/16 03:22:41;;;;;;;4.03;1.80;;;-7.90;99.80;;;;;;2042228;28;20235;-67
2024/01/16 03:23:42;;;;;;;3.03;1.90;;;-7.70;99.60;;;;;;2050808;28;20476;-66
2024/01/16 03:24:43;;;;;;;3.77;2.10;;;-7.80;99.60;;;;;;2049379;28;20287;-66
2024/01/16 03:25:43;;;;;;;4.73;2.20;;;-7.80;99.40;;;;;;2048668;28;20230;-67
2024/01/16 03:26:44;;;;;;;4.50;2.17;;;-7.70;99.40;;;;;;2050262;28;20249;-67
2024/01/16 03:27:45;;;;;;;2.73;2.03;;;-7.70;99.70;;;;;;2049899;28;20335;-67
2024/01/16 03:28:45;;;;;;;3.83;1.97;;;-7.80;99.30;;;;;;2051849;28;20838;-67
2024/01/16 03:29:46;;;;;;;3.83;2.20;;;-7.80;99.10;;;;;;2045536;28;20226;-67
2024/01/16 03:30:47;;;;;;;3.83;2.37;;;-7.80;99.80;;;;;;2045336;28;20310;-66
2024/01/16 03:31:49;;;;;;;4.50;2.13;;;-7.80;99.90;;;;;;2050655;28;20231;-67
2024/01/16 03:32:49;;;;;;;4.25;2.45;;;-7.80;99.90;;;;;;2049329;28;20233;-67
2024/01/16 03:33:50;;;;;;;4.73;2.20;;;-7.90;99.90;;;;;;2040810;28;20276;-67
2024/01/16 03:34:51;;;;;;;3.43;2.33;;;-7.90;99.90;;;;;;2038689;28;20314;-65
2024/01/16 03:35:52;;;;;;;3.73;2.40;;;-7.70;99.90;;;;;;2051510;28;20306;-65
2024/01/16 03:36:53;;;;;;;3.13;2.08;;;-7.70;99.90;;;;;;2053072;28;20310;-66
2024/01/16 03:37:53;;;;;;;4.70;2.20;;;-7.70;99.90;;;;;;2049962;28;20230;-67
2024/01/16 03:38:54;;;;;;;4.87;2.10;;;-7.50;99.90;;;;;;2050504;28;20795;-67
2024/01/16 03:39:55;;;;;;;3.23;2.53;;;-7.60;99.90;;;;;;2051191;28;20369;-66
2024/01/16 03:40:55;;;;;;;3.93;2.30;;;-7.60;99.90;;;;;;2050836;28;20305;-67
2024/01/16 03:41:56;;;;;;;4.73;2.70;;;-7.60;99.90;;;;;;2049697;28;20276;-67
2024/01/16 03:42:57;;;;;;;2.80;1.85;;;-7.60;99.70;;;;;;2049021;28;20230;-67
2024/01/16 03:43:58;;;;;;;5.63;2.20;;;-7.50;99.40;;;;;;2049406;28;20238;-65
2024/01/16 03:44:59;;;;;;;5.10;2.20;;;-7.60;99.20;;;;;;2049691;28;20237;-65
2024/01/16 03:46:00;;;;;;;3.00;2.30;;;-7.50;98.90;;;;;;2048834;28;20227;-65
2024/01/16 03:47:00;;;;;;;2.83;2.22;;;-7.60;98.50;;;;;;2049575;28;20233;-67
2024/01/16 03:48:03;;;;;;;3.53;2.10;;;-7.70;98.70;;;;;;2047533;28;21280;-64
2024/01/16 03:49:03;;;;;;;4.10;2.17;;;-7.80;98.90;;;;;;2049196;28;20200;-67
2024/01/16 03:50:05;;;;;;;4.27;2.37;;;-7.90;98.60;;;;;;2052600;28;20193;-67
2024/01/16 03:51:06;;;;;;;4.22;2.33;;;-7.90;98.50;;;;;;2054241;28;20228;-65
2024/01/16 03:52:07;;;;;;;3.47;2.05;;;-7.80;98.60;;;;;;2054288;28;20285;-67
2024/01/16 03:53:08;;;;;;;3.33;2.23;;;-7.80;98.50;;;;;;2051610;28;20190;-67
2024/01/16 03:54:09;;;;;;;4.75;2.83;;;-7.70;98.30;;;;;;2053347;28;20183;-67
2024/01/16 03:55:10;;;;;;;3.80;2.10;;;-7.80;98.40;;;;;;2051624;28;20196;-67
2024/01/16 03:56:10;;;;;;;4.73;2.70;;;-7.90;99.10;;;;;;2052400;28;20291;-67
2024/01/16 03:57:12;;;;;;;4.07;2.40;;;-8.00;99.60;;;;;;2042803;28;20200;-65
2024/01/16 03:58:12;;;;;;;3.20;1.60;;;-8.00;99.30;;;;;;2043203;28;20212;-65
2024/01/16 03:59:13;;;;;;;3.60;1.90;;;-8.00;99.10;;;;;;2044608;28;20704;-66
2024/01/16 04:00:14;;;;;;;4.17;2.50;;;-7.90;98.80;;;;;;2044120;28;20210;-65
2024/01/16 04:01:15;;;;;;;5.80;2.77;;;-7.90;98.70;;;;;;2053001;28;20248;-65
2024/01/16 04:02:15;;;;;;;4.10;2.30;;;-7.90;98.90;;;;;;2050975;28;20672;-65
2024/01/16 04:03:17;;;;;;;4.13;2.13;;;-8.00;98.90;;;;;;2048768;28;20220;-67
2024/01/16 04:04:17;;;;;;;4.07;2.45;;;-8.10;98.70;;;;;;2051471;28;20180;-66
2024/01/16 04:05:18;;;;;;;4.33;2.10;;;-8.30;98.00;;;;;;2042868;28;20326;-67
2024/01/16 04:06:19;;;;;;;4.40;2.47;;;-8.40;97.90;;;;;;2050281;28;20213;-67
2024/01/16 04:07:24;;;;;;;2.97;2.07;;;-8.30;98.40;;;;;;2052716;28;20189;-67
2024/01/16 04:08:25;;;;;;;3.35;2.20;;;-8.20;98.80;;;;;;2044733;28;20708;-66
2024/01/16 04:09:26;;;;;;;3.93;2.20;;;-8.10;99.50;;;;;;2054229;28;20229;-67
2024/01/16 04:10:26;;;;;;;3.23;2.23;;;-8.10;99.60;;;;;;2048595;28;20746;-67
2024/01/16 04:11:27;;;;;;;4.53;2.10;;;-8.10;99.90;;;;;;2052736;28;20300;-67
2024/01/16 04:12:28;;;;;;;4.00;1.93;;;-8.10;99.90;;;;;;2053015;28;20236;-67
2024/01/16 04:13:28;;;;;;;11.17;2.80;;;-8.20;99.90;;;;;;2053266;28;20292;-65
2024/01/16 04:14:29;;;;;;;4.97;2.40;;;-8.20;99.90;;;;;;2054508;28;20227;-67
2024/01/16 04:15:30;;;;;;;3.90;2.30;;;-8.20;99.90;;;;;;2051873;28;20722;-66
2024/01/16 04:16:30;;;;;;;5.30;2.27;;;-8.10;99.90;;;;;;2053255;28;20241;-67
2024/01/16 04:17:31;;;;;;;4.90;2.40;;;-8.20;99.90;;;;;;2051997;28;20233;-67
2024/01/16 04:18:41;;;;;;;5.50;2.50;;;-8.10;99.90;;;;;;2052041;28;20236;-67
2024/01/16 04:19:42;;;;;;;3.38;2.40;;;-8.10;99.90;;;;;;2052722;28;20229;-67
2024/01/16 04:20:42;;;;;;;5.00;2.57;;;-8.10;99.90;;;;;;2049725;28;20233;-67
2024/01/16 04:21:43;;;;;;;6.83;2.53;;;-8.00;99.90;;;;;;2051306;28;20272;-67
2024/01/16 04:22:45;;;;;;;4.77;2.60;;;-8.00;99.90;;;;;;2050829;28;20245;-67
2024/01/16 04:23:46;;;;;;;6.13;2.92;;;-8.00;99.90;;;;;;2050536;28;20845;-67
2024/01/16 04:24:47;;;;;;;6.37;2.80;;;-8.10;99.90;;;;;;2050677;28;20246;-67
2024/01/16 04:25:48;;;;;;;3.70;2.33;;;-8.00;99.90;;;;;;2050431;28;20240;-67
2024/01/16 04:26:50;;;;;;;6.67;2.63;;;-8.00;99.70;;;;;;2049822;28;20265;-67
2024/01/16 04:27:51;;;;;;;3.45;2.17;;;-8.00;99.40;;;;;;2041803;28;20754;-67
2024/01/16 04:28:51;;;;;;;3.73;2.53;;;-8.10;99.10;;;;;;2033792;29;20249;-67
2024/01/16 04:29:53;;;;;;;8.10;2.70;;;-8.00;99.10;;;;;;2049557;28;20266;-67
2024/01/16 04:30:53;;;;;;;3.53;2.33;;;-8.10;99.00;;;;;;2049671;28;20327;-67
2024/01/16 04:31:54;;;;;;;6.77;2.97;;;-8.10;99.00;;;;;;2052371;28;20273;-67
2024/01/16 04:32:55;;;;;;;4.90;2.20;;;-8.20;98.90;;;;;;2052109;28;20232;-67
2024/01/16 04:33:56;;;;;;;4.93;2.20;;;-8.10;99.00;;;;;;2051833;28;20233;-65
2024/01/16 04:34:56;;;;;;;3.47;2.13;;;-8.20;98.90;;;;;;2052639;28;20220;-67
2024/01/16 04:35:57;;;;;;;4.93;2.13;;;-8.30;98.30;;;;;;2052982;28;20231;-67
2024/01/16 04:36:58;;;;;;;5.77;3.33;;;-8.40;98.20;;;;;;2052154;28;20226;-67
2024/01/16 04:37:59;;;;;;;5.33;2.40;;;-8.50;98.20;;;;;;2052941;28;20230;-66
2024/01/16 04:38:59;;;;;;;4.67;2.30;;;-8.50;98.20;;;;;;2050968;28;20223;-66
2024/01/16 04:40:00;;;;;;;4.83;3.03;;;-8.40;98.40;;;;;;2049850;28;20747;-67
2024/01/16 04:41:02;;;;;;;5.43;2.80;;;-8.30;98.40;;;;;;2049320;28;20229;-67
2024/01/16 04:42:03;;;;;;;6.47;2.60;;;-8.20;98.40;;;;;;2043878;28;20201;-67
2024/01/16 04:43:05;;;;;;;4.05;2.35;;;-8.30;97.80;;;;;;2044513;28;20199;-67
2024/01/16 04:44:06;;;;;;;5.28;2.55;;;-8.20;98.10;;;;;;2050197;28;20830;-67
2024/01/16 04:45:07;;;;;;;4.40;2.33;;;-8.20;98.50;;;;;;2041154;28;20222;-67
2024/01/16 04:46:08;;;;;;;5.47;2.40;;;-8.20;98.90;;;;;;2043636;28;20196;-67
2024/01/16 04:47:08;;;;;;;4.77;2.50;;;-8.20;99.20;;;;;;2048728;28;20305;-67
2024/01/16 04:48:09;;;;;;;4.10;2.43;;;-8.20;99.40;;;;;;2040032;28;20252;-67
2024/01/16 04:49:11;;;;;;;5.43;2.50;;;-8.20;99.30;;;;;;2047678;28;20214;-67
2024/01/16 04:50:11;;;;;;;4.38;2.50;;;-8.20;99.20;;;;;;2049295;28;20198;-66
2024/01/16 04:51:12;;;;;;;3.47;2.20;;;-8.20;99.00;;;;;;2049122;28;20193;-67
2024/01/16 04:52:13;;;;;;;6.00;3.10;;;-8.30;98.60;;;;;;2048322;28;20209;-67
2024/01/16 04:53:14;;;;;;;5.13;2.50;;;-8.20;98.30;;;;;;2039407;28;20206;-67
2024/01/16 04:54:15;;;;;;;4.13;2.70;;;-8.20;98.00;;;;;;2040322;28;20203;-67
2024/01/16 04:55:15;;;;;;;5.50;2.90;;;-8.20;97.90;;;;;;2050565;28;20290;-67
2024/01/16 04:56:16;;;;;;;3.17;2.20;;;-8.20;98.10;;;;;;2047337;28;20191;-67
2024/01/16 04:57:17;;;;;;;6.00;2.50;;;-8.30;97.70;;;;;;2053025;28;20195;-65
2024/01/16 04:58:18;;;;;;;3.40;1.90;;;-8.40;97.40;;;;;;2053866;28;20206;-65
2024/01/16 04:59:19;;;;;;;3.33;2.22;;;-8.50;97.10;;;;;;2053918;28;20194;-67
2024/01/16 05:00:20;;;;;;;4.50;2.57;;;-8.50;97.20;;;;;;2053013;28;20252;-67
2024/01/16 05:01:20;;;;;;;4.07;2.23;;;-8.60;97.30;;;;;;2052764;28;20344;-67
2024/01/16 05:02:21;;;;;;;4.40;2.80;;;-8.60;97.50;;;;;;2054051;28;20278;-67
2024/01/16 05:03:22;;;;;;;4.43;3.13;;;-8.50;98.40;;;;;;2054296;28;20651;-67
2024/01/16 05:04:22;;;;;;;4.07;2.23;;;-8.60;98.20;;;;;;2053469;28;20233;-67
2024/01/16 05:05:23;;;;;;;4.70;2.40;;;-8.70;98.00;;;;;;2051584;28;20234;-67
2024/01/16 05:06:24;;;;;;;3.73;2.10;;;-8.80;98.60;;;;;;2052365;28;20659;-65
2024/01/16 05:07:24;;;;;;;4.23;2.33;;;-8.70;99.10;;;;;;2052194;28;20321;-65
2024/01/16 05:08:25;;;;;;;4.53;2.80;;;-8.60;98.60;;;;;;2049754;28;20786;-67
2024/01/16 05:09:26;;;;;;;5.63;3.20;;;-8.40;98.60;;;;;;2047294;28;20234;-65
2024/01/16 05:10:26;;;;;;;6.47;3.53;;;-8.50;98.60;;;;;;2045768;28;20227;-65
2024/01/16 05:11:27;;;;;;;4.33;2.97;;;-8.50;99.10;;;;;;2039028;28;20330;-67
2024/01/16 05:12:28;;;;;;;5.00;2.60;;;-8.50;99.50;;;;;;2046584;28;20258;-65
2024/01/16 05:13:28;;;;;;;6.17;3.93;;;-8.50;99.60;;;;;;2050299;28;20230;-65
2024/01/16 05:14:29;;;;;;;6.90;3.27;;;-8.50;99.50;;;;;;2050746;28;20704;-65
2024/01/16 05:15:30;;;;;;;5.90;3.47;;;-8.50;99.30;;;;;;2055442;28;20234;-66
2024/01/16 05:16:30;;;;;;;4.77;3.10;;;-8.40;99.30;;;;;;2053627;28;20254;-66
2024/01/16 05:17:31;;;;;;;4.10;3.07;;;-8.40;99.10;;;;;;2055871;28;20762;-66
2024/01/16 05:18:35;;;;;;;5.88;3.13;;;-8.40;99.40;;;;;;2043547;28;20233;-65